createdAt,value
2022-12-15T00:02:21.499Z,65.24
2022-12-15T00:05:07.155Z,64.71
2022-12-15T00:07:52.950Z,65.42
2022-12-15T00:10:39.263Z,64.79
2022-12-15T00:13:32.244Z,65.06
2022-12-15T00:16:18.348Z,64.25
2022-12-15T00:19:04.063Z,64.53
2022-12-15T00:21:49.868Z,64.67
2022-12-15T00:24:35.193Z,65.54
2022-12-15T00:27:21.201Z,66.23
2022-12-15T00:30:07.048Z,65.42
2022-12-15T00:32:52.552Z,64.52
2022-12-15T00:35:38.230Z,64.42
2022-12-15T00:38:32.610Z,65.02
2022-12-15T00:41:01.319Z,65.47
2022-12-15T00:43:30.232Z,65.97
2022-12-15T00:46:16.187Z,65.87
2022-12-15T00:48:43.462Z,65.73
2022-12-15T00:51:10.397Z,65.22
2022-12-15T00:53:55.998Z,66.02
2022-12-15T00:56:41.311Z,65.96
2022-12-15T00:59:27.213Z,65.67
2022-12-15T01:02:12.530Z,67.02
2022-12-15T01:04:58.280Z,67.40
2022-12-15T01:07:43.432Z,66.59
2022-12-15T01:10:29.264Z,67.52
2022-12-15T01:13:14.855Z,66.88
2022-12-15T01:16:00.226Z,66.68
2022-12-15T01:18:49.549Z,66.54
2022-12-15T01:21:16.644Z,65.60
2022-12-15T01:23:43.348Z,67.00
2022-12-15T01:26:10.380Z,65.87
2022-12-15T01:28:37.218Z,65.91
2022-12-15T01:31:11.667Z,65.72
2022-12-15T01:33:39.842Z,65.91
2022-12-15T01:36:07.261Z,65.53
2022-12-15T01:38:34.028Z,65.38
2022-12-15T01:41:07.272Z,66.50
2022-12-15T01:43:36.815Z,65.47
2022-12-15T01:46:08.253Z,65.29
2022-12-15T01:48:55.282Z,66.13
2022-12-15T01:51:39.635Z,65.71
2022-12-15T01:54:18.315Z,65.58
2022-12-15T01:56:50.049Z,65.40
2022-12-15T01:59:20.857Z,67.76
2022-12-15T02:01:49.986Z,68.37
2022-12-15T02:04:20.381Z,67.31
2022-12-15T02:06:47.169Z,67.25
2022-12-15T02:09:15.223Z,67.69
2022-12-15T02:11:41.910Z,67.99
2022-12-15T02:14:11.210Z,67.89
2022-12-15T02:16:43.723Z,68.91
2022-12-15T02:19:48.742Z,68.14
2022-12-15T02:22:34.951Z,69.58
2022-12-15T02:25:28.700Z,69.65
2022-12-15T02:28:06.919Z,69.40
2022-12-15T02:30:42.828Z,69.02
2022-12-15T02:33:27.311Z,67.93
2022-12-15T02:36:00.128Z,67.54
2022-12-15T02:38:38.293Z,66.78
2022-12-15T02:41:06.653Z,67.84
2022-12-15T02:43:37.898Z,67.30
2022-12-15T02:46:16.887Z,67.13
2022-12-15T02:49:09.933Z,68.02
2022-12-15T02:52:00.302Z,67.73
2022-12-15T02:54:33.025Z,68.89
2022-12-15T02:57:18.448Z,67.71
2022-12-15T02:59:58.328Z,68.39
2022-12-15T03:02:28.638Z,68.13
2022-12-15T03:04:56.590Z,68.88
2022-12-15T03:07:27.964Z,68.12
2022-12-15T03:10:00.003Z,68.62
2022-12-15T03:12:27.692Z,67.83
2022-12-15T03:14:54.478Z,68.22
2022-12-15T03:17:21.429Z,68.10
2022-12-15T03:19:49.756Z,68.08
2022-12-15T03:22:16.784Z,67.49
2022-12-15T03:24:43.611Z,68.91
2022-12-15T03:27:10.577Z,67.58
2022-12-15T03:29:38.333Z,66.38
2022-12-15T03:32:05.518Z,66.62
2022-12-15T03:34:32.299Z,67.07
2022-12-15T03:36:59.300Z,66.40
2022-12-15T03:39:26.098Z,65.58
2022-12-15T03:41:52.810Z,66.23
2022-12-15T03:44:19.513Z,66.21
2022-12-15T03:46:46.375Z,66.17
2022-12-15T03:49:13.083Z,67.00
2022-12-15T03:51:40.048Z,65.87
2022-12-15T03:54:07.450Z,64.60
2022-12-15T03:56:34.211Z,64.70
2022-12-15T03:59:00.953Z,64.58
2022-12-15T04:01:33.103Z,63.73
2022-12-15T04:04:01.811Z,63.97
2022-12-15T04:06:29.846Z,64.80
2022-12-15T04:08:57.209Z,64.94
2022-12-15T04:11:23.855Z,65.36
2022-12-15T04:13:50.594Z,65.33
2022-12-15T04:16:20.156Z,64.74
2022-12-15T04:19:07.822Z,65.54
2022-12-15T04:21:34.592Z,65.76
2022-12-15T04:24:19.777Z,66.12
2022-12-15T04:27:05.154Z,65.48
2022-12-15T04:29:50.578Z,65.51
2022-12-15T04:32:36.159Z,64.90
2022-12-15T04:35:21.677Z,66.66
2022-12-15T04:38:07.136Z,66.28
2022-12-15T04:40:52.700Z,66.57
2022-12-15T04:43:38.065Z,66.84
2022-12-15T04:46:23.345Z,67.27
2022-12-15T04:49:08.680Z,65.36
2022-12-15T04:51:53.952Z,66.13
2022-12-15T04:54:39.319Z,65.66
2022-12-15T04:57:24.633Z,66.10
2022-12-15T05:00:09.879Z,66.24
2022-12-15T05:02:55.166Z,65.99
2022-12-15T05:05:40.502Z,66.00
2022-12-15T05:08:25.760Z,65.96
2022-12-15T05:11:10.786Z,65.12
2022-12-15T05:13:56.109Z,65.13
2022-12-15T05:16:41.663Z,64.25
2022-12-15T05:19:26.832Z,64.29
2022-12-15T05:22:12.238Z,64.79
2022-12-15T05:24:57.581Z,67.25
2022-12-15T05:27:43.096Z,67.09
2022-12-15T05:30:28.885Z,66.87
2022-12-15T05:32:56.001Z,67.68
2022-12-15T05:35:23.215Z,67.36
2022-12-15T05:37:49.917Z,66.05
2022-12-15T05:40:16.730Z,66.82
2022-12-15T05:42:43.403Z,66.28
2022-12-15T05:45:16.886Z,66.43
2022-12-15T05:47:43.601Z,66.79
2022-12-15T05:50:10.539Z,66.82
2022-12-15T05:52:37.269Z,67.19
2022-12-15T05:55:04.345Z,67.74
2022-12-15T05:57:31.220Z,67.21
2022-12-15T05:59:58.041Z,67.18
2022-12-15T06:02:24.835Z,68.10
2022-12-15T06:04:51.796Z,67.93
2022-12-15T06:07:19.270Z,68.50
2022-12-15T06:09:46.502Z,69.56
2022-12-15T06:12:13.293Z,70.50
2022-12-15T06:14:40.151Z,68.84
2022-12-15T06:17:06.861Z,69.83
2022-12-15T06:19:33.884Z,69.72
2022-12-15T06:22:00.682Z,68.87
2022-12-15T06:24:27.617Z,67.30
2022-12-15T06:26:54.331Z,66.89
2022-12-15T06:29:21.026Z,67.96
2022-12-15T06:31:47.937Z,67.27
2022-12-15T06:34:17.012Z,67.65
2022-12-15T06:36:44.244Z,67.39
2022-12-15T06:39:13.234Z,67.54
2022-12-15T06:41:41.318Z,68.31
2022-12-15T06:44:08.080Z,67.38
2022-12-15T06:46:35.288Z,68.51
2022-12-15T06:49:02.154Z,68.96
2022-12-15T06:51:28.893Z,68.93
2022-12-15T06:53:56.519Z,69.24
2022-12-15T06:56:34.364Z,69.25
2022-12-15T06:59:04.181Z,68.58
2022-12-15T07:01:31.985Z,68.97
2022-12-15T07:04:01.373Z,67.46
2022-12-15T07:06:34.249Z,67.89
2022-12-15T07:09:02.199Z,68.09
2022-12-15T07:11:28.940Z,68.40
2022-12-15T07:13:55.646Z,68.47
2022-12-15T07:16:23.155Z,68.24
2022-12-15T07:18:51.022Z,67.73
2022-12-15T07:21:18.160Z,67.50
2022-12-15T07:23:54.884Z,68.41
2022-12-15T07:26:23.128Z,69.08
2022-12-15T07:28:49.817Z,67.45
2022-12-15T07:31:16.610Z,67.60
2022-12-15T07:33:43.665Z,67.48
2022-12-15T07:36:11.108Z,67.28
2022-12-15T07:38:38.253Z,65.82
2022-12-15T07:41:07.138Z,65.86
2022-12-15T07:43:35.045Z,65.43
2022-12-15T07:46:03.347Z,66.17
2022-12-15T07:48:31.682Z,66.92
2022-12-15T07:51:07.419Z,66.33
2022-12-15T07:53:37.192Z,65.65
2022-12-15T07:56:08.908Z,66.26
2022-12-15T07:58:37.490Z,66.87
2022-12-15T08:01:07.141Z,66.21
2022-12-15T08:03:35.785Z,65.74
2022-12-15T08:06:07.540Z,67.04
2022-12-15T08:08:35.742Z,66.94
2022-12-15T08:11:10.745Z,66.16
2022-12-15T08:16:26.520Z,65.49
2022-12-15T08:18:53.824Z,65.86
2022-12-15T08:21:20.766Z,65.29
2022-12-15T08:23:48.253Z,64.43
2022-12-15T08:26:17.234Z,65.25
2022-12-15T08:28:44.600Z,64.26
2022-12-15T08:31:18.078Z,64.92
2022-12-15T08:33:46.175Z,65.05
2022-12-15T08:36:14.435Z,65.97
2022-12-15T08:38:42.557Z,64.66
2022-12-15T08:41:12.152Z,64.25
2022-12-15T08:43:47.218Z,66.39
2022-12-15T08:46:16.870Z,65.45
2022-12-15T08:48:44.406Z,65.45
2022-12-15T08:51:12.157Z,65.11
2022-12-15T08:53:39.234Z,64.06
2022-12-15T08:56:08.308Z,64.52
2022-12-15T08:58:35.233Z,64.28
2022-12-15T09:01:07.763Z,65.94
2022-12-15T09:03:36.313Z,65.46
2022-12-15T09:06:07.915Z,67.18
2022-12-15T09:08:35.441Z,67.21
2022-12-15T09:11:02.649Z,66.23
2022-12-15T09:13:30.168Z,66.11
2022-12-15T09:16:09.335Z,67.84
2022-12-15T09:18:37.028Z,68.43
2022-12-15T09:21:06.239Z,67.19
2022-12-15T09:23:34.732Z,66.32
2022-12-15T09:26:02.982Z,65.55
2022-12-15T09:28:30.176Z,64.93
2022-12-15T09:31:24.632Z,65.77
2022-12-15T09:33:54.099Z,65.42
2022-12-15T09:36:22.330Z,65.49
2022-12-15T09:38:50.507Z,65.34
2022-12-15T09:41:33.134Z,66.35
2022-12-15T09:44:12.972Z,65.80
2022-12-15T09:46:56.301Z,66.18
2022-12-15T09:49:29.185Z,65.86
2022-12-15T09:52:10.730Z,64.51
2022-12-15T09:54:38.856Z,65.97
2022-12-15T09:57:15.424Z,64.95
2022-12-15T10:00:23.544Z,65.82
2022-12-15T10:03:09.548Z,65.34
2022-12-15T10:06:15.458Z,64.60
2022-12-15T10:08:33.445Z,65.45
2022-12-15T10:11:01.843Z,66.05
2022-12-15T10:13:37.591Z,66.22
2022-12-15T10:16:14.118Z,65.35
2022-12-15T10:18:56.097Z,65.72
2022-12-15T10:21:29.118Z,64.86
2022-12-15T10:27:32.783Z,65.89
2022-12-15T10:30:09.184Z,66.42
2022-12-15T10:32:51.088Z,66.66
2022-12-15T10:35:23.276Z,66.69
2022-12-15T10:37:50.320Z,67.66
2022-12-15T10:40:44.570Z,66.54
2022-12-15T10:43:37.332Z,65.59
2022-12-15T10:46:20.006Z,66.27
2022-12-15T10:49:07.073Z,66.86
2022-12-15T10:51:45.184Z,66.23
2022-12-15T10:54:14.570Z,64.50
2022-12-15T10:56:58.785Z,64.60
2022-12-15T10:59:36.786Z,64.53
2022-12-15T11:02:37.050Z,65.91
2022-12-15T11:05:16.981Z,65.12
2022-12-15T11:07:51.239Z,64.94
2022-12-15T11:10:48.782Z,64.66
2022-12-15T11:13:20.336Z,64.11
2022-12-15T11:15:51.852Z,64.99
2022-12-15T11:18:39.054Z,64.23
2022-12-15T11:21:27.555Z,64.88
2022-12-15T11:24:32.015Z,67.51
2022-12-15T11:27:09.079Z,66.76
2022-12-15T11:29:50.318Z,65.95
2022-12-15T11:32:23.211Z,66.56
2022-12-15T11:34:50.257Z,65.20
2022-12-15T11:37:42.532Z,63.93
2022-12-15T11:40:47.921Z,63.75
2022-12-15T11:43:44.782Z,62.98
2022-12-15T11:46:23.797Z,62.99
2022-12-15T11:49:15.405Z,63.89
2022-12-15T11:52:06.033Z,62.89
2022-12-15T11:54:38.835Z,63.57
2022-12-15T11:57:44.580Z,63.62
2022-12-15T12:00:16.299Z,60.89
2022-12-15T12:02:45.812Z,58.81
2022-12-15T12:05:38.404Z,56.80
2022-12-15T12:08:14.246Z,55.87
2022-12-15T12:10:48.626Z,55.73
2022-12-15T12:13:30.595Z,56.20
2022-12-15T12:16:18.519Z,54.68
2022-12-15T12:18:54.176Z,56.89
2022-12-15T12:21:43.032Z,54.24
2022-12-15T12:24:16.536Z,55.40
2022-12-15T12:27:09.276Z,57.42
2022-12-15T12:29:44.614Z,55.96
2022-12-15T12:32:15.990Z,53.99
2022-12-15T12:35:31.523Z,52.33
2022-12-15T12:38:05.385Z,50.31
2022-12-15T12:40:41.164Z,49.63
2022-12-15T12:43:44.430Z,50.56
2022-12-15T12:46:23.657Z,47.24
2022-12-15T12:49:22.848Z,48.55
2022-12-15T12:51:56.885Z,47.72
2022-12-15T12:54:32.545Z,47.29
2022-12-15T12:56:59.930Z,48.62
2022-12-15T12:59:29.523Z,48.55
2022-12-15T13:02:17.352Z,51.52
2022-12-15T13:04:50.640Z,53.12
2022-12-15T13:07:36.693Z,52.74
2022-12-15T13:10:11.715Z,52.42
2022-12-15T13:12:56.575Z,53.85
2022-12-15T13:15:23.278Z,51.82
2022-12-15T13:17:54.333Z,53.81
2022-12-15T13:20:28.761Z,54.58
2022-12-15T13:22:57.040Z,54.56
2022-12-15T13:25:41.307Z,55.91
2022-12-15T13:28:36.453Z,55.94
2022-12-15T13:31:21.467Z,55.37
2022-12-15T13:33:52.382Z,55.81
2022-12-15T13:36:37.624Z,57.27
2022-12-15T13:39:16.529Z,57.86
2022-12-15T13:42:15.335Z,56.98
2022-12-15T13:44:39.588Z,56.74
2022-12-15T13:47:12.837Z,57.49
2022-12-15T13:49:59.159Z,56.73
2022-12-15T13:53:08.030Z,57.07
2022-12-15T13:55:33.196Z,57.45
2022-12-15T13:58:05.207Z,57.03
2022-12-15T14:00:32.861Z,56.93
2022-12-15T14:03:07.724Z,57.87
2022-12-15T14:05:34.685Z,58.57
2022-12-15T14:08:03.512Z,58.13
2022-12-15T14:10:34.691Z,57.51
2022-12-15T14:13:25.908Z,58.01
2022-12-15T14:15:59.227Z,57.92
2022-12-15T14:18:35.155Z,57.31
2022-12-15T14:21:06.390Z,57.49
2022-12-15T14:24:11.049Z,56.99
2022-12-15T14:26:31.981Z,58.92
2022-12-15T14:29:05.021Z,58.44
2022-12-15T14:31:32.382Z,59.01
2022-12-15T14:34:06.426Z,58.83
2022-12-15T14:36:33.791Z,59.46
2022-12-15T14:39:04.567Z,60.78
2022-12-15T14:41:36.838Z,61.62
2022-12-15T14:44:31.559Z,60.78
2022-12-15T14:49:57.897Z,61.73
2022-12-15T14:52:36.289Z,60.20
2022-12-15T14:55:24.785Z,61.42
2022-12-15T14:57:53.271Z,60.51
2022-12-15T15:00:25.993Z,61.36
2022-12-15T15:03:16.332Z,60.67
2022-12-15T15:03:18.507Z,60.70
2022-12-15T15:05:48.333Z,59.84
2022-12-15T15:08:23.847Z,60.34
2022-12-15T15:10:51.302Z,59.84
2022-12-15T15:13:27.071Z,59.90
2022-12-15T15:16:04.080Z,59.95
2022-12-15T15:18:31.398Z,60.25
2022-12-15T15:21:03.421Z,61.58
2022-12-15T15:23:30.814Z,61.18
2022-12-15T15:26:06.720Z,61.09
2022-12-15T15:28:37.955Z,61.28
2022-12-15T15:31:25.820Z,61.80
2022-12-15T15:33:53.254Z,61.49
2022-12-15T15:36:21.837Z,60.59
2022-12-15T15:38:48.785Z,62.20
2022-12-15T15:41:21.515Z,62.03
2022-12-15T15:43:49.030Z,60.86
2022-12-15T15:46:22.694Z,61.08
2022-12-15T15:49:16.868Z,61.03
2022-12-15T15:51:43.847Z,61.55
2022-12-15T15:54:18.171Z,61.91
2022-12-15T15:56:45.045Z,62.19
2022-12-15T15:59:17.786Z,61.42
2022-12-15T16:01:46.665Z,60.54
2022-12-15T16:04:13.555Z,60.33
2022-12-15T16:06:46.993Z,61.82
2022-12-15T16:09:15.848Z,62.20
2022-12-15T16:11:43.195Z,61.38
2022-12-15T16:14:14.589Z,61.84
2022-12-15T16:16:42.016Z,61.79
2022-12-15T16:19:09.194Z,63.43
2022-12-15T16:21:36.634Z,63.19
2022-12-15T16:24:16.023Z,64.26
2022-12-15T16:26:48.337Z,62.49
2022-12-15T16:29:17.280Z,61.78
2022-12-15T16:31:47.231Z,63.25
2022-12-15T16:34:21.807Z,62.09
2022-12-15T16:36:48.770Z,63.13
2022-12-15T16:39:24.796Z,62.18
2022-12-15T16:41:53.275Z,63.70
2022-12-15T16:44:19.977Z,65.32
2022-12-15T16:46:46.844Z,64.38
2022-12-15T16:49:13.677Z,65.08
2022-12-15T16:51:48.123Z,63.67
2022-12-15T16:54:30.597Z,64.24
2022-12-15T16:57:00.368Z,63.93
2022-12-15T16:59:35.579Z,63.75
2022-12-15T17:02:33.430Z,63.39
2022-12-15T17:05:00.537Z,63.29
2022-12-15T17:07:28.126Z,62.46
2022-12-15T17:09:55.655Z,62.83
2022-12-15T17:12:22.385Z,63.28
2022-12-15T17:14:49.206Z,62.09
2022-12-15T17:17:18.670Z,62.42
2022-12-15T17:20:11.789Z,62.03
2022-12-15T17:22:33.525Z,61.84
2022-12-15T17:25:00.394Z,63.05
2022-12-15T17:27:29.838Z,62.23
2022-12-15T17:29:59.485Z,61.43
2022-12-15T17:32:26.861Z,63.38
2022-12-15T17:34:53.671Z,64.71
2022-12-15T17:37:20.444Z,63.56
2022-12-15T17:39:51.591Z,63.82
2022-12-15T17:42:20.565Z,62.56
2022-12-15T17:44:49.187Z,64.66
2022-12-15T17:47:18.922Z,63.52
2022-12-15T17:49:47.403Z,63.13
2022-12-15T17:52:26.305Z,62.26
2022-12-15T17:54:53.768Z,63.29
2022-12-15T17:57:20.484Z,63.01
2022-12-15T17:59:48.136Z,62.38
2022-12-15T18:02:15.414Z,62.58
2022-12-15T18:04:42.910Z,65.29
2022-12-15T18:07:21.743Z,64.63
2022-12-15T18:09:50.881Z,65.99
2022-12-15T18:12:23.429Z,66.67
2022-12-15T18:14:50.518Z,65.60
2022-12-15T18:17:17.434Z,64.52
2022-12-15T18:19:44.969Z,64.46
2022-12-15T18:22:23.636Z,63.56
2022-12-15T18:24:53.031Z,64.37
2022-12-15T18:27:26.621Z,64.43
2022-12-15T18:29:54.262Z,62.37
2022-12-15T18:32:25.505Z,62.63
2022-12-15T18:34:53.588Z,62.89
2022-12-15T18:37:23.042Z,63.44
2022-12-15T18:39:50.993Z,64.29
2022-12-15T18:42:20.030Z,62.92
2022-12-15T18:44:50.152Z,63.92
2022-12-15T18:47:18.857Z,63.82
2022-12-15T18:49:45.876Z,64.16
2022-12-15T18:52:25.764Z,64.04
2022-12-15T18:54:55.724Z,63.63
2022-12-15T18:57:34.871Z,64.50
2022-12-15T19:00:17.011Z,64.04
2022-12-15T19:02:44.031Z,63.92
2022-12-15T19:05:29.449Z,65.03
2022-12-15T19:08:03.094Z,65.33
2022-12-15T19:10:33.138Z,64.42
2022-12-15T19:13:01.033Z,64.94
2022-12-15T19:15:27.947Z,64.93
2022-12-15T19:18:13.758Z,65.79
2022-12-15T19:20:59.614Z,66.04
2022-12-15T19:23:26.514Z,66.97
2022-12-15T19:25:54.198Z,66.03
2022-12-15T19:28:23.005Z,65.98
2022-12-15T19:30:50.741Z,66.01
2022-12-15T19:33:18.758Z,66.12
2022-12-15T19:35:50.362Z,64.47
2022-12-15T19:38:22.311Z,64.95
2022-12-15T19:43:37.579Z,64.75
2022-12-15T19:46:04.528Z,65.41
2022-12-15T19:48:31.330Z,66.47
2022-12-15T19:50:58.223Z,65.46
2022-12-15T19:53:28.381Z,65.03
2022-12-15T19:56:01.310Z,65.97
2022-12-15T19:58:33.330Z,66.08
2022-12-15T20:01:12.308Z,66.60
2022-12-15T20:03:39.708Z,65.97
2022-12-15T20:06:23.212Z,65.75
2022-12-15T20:08:52.968Z,66.68
2022-12-15T20:11:30.423Z,66.89
2022-12-15T20:13:57.829Z,66.40
2022-12-15T20:16:25.167Z,66.60
2022-12-15T20:18:54.709Z,67.18
2022-12-15T20:21:24.579Z,66.37
2022-12-15T20:23:59.087Z,65.88
2022-12-15T20:26:26.055Z,65.49
2022-12-15T20:28:53.356Z,65.71
2022-12-15T20:31:23.176Z,64.74
2022-12-15T20:33:50.975Z,65.34
2022-12-15T20:36:19.205Z,66.46
2022-12-15T20:38:47.054Z,65.37
2022-12-15T20:41:30.420Z,64.49
2022-12-15T20:43:57.974Z,65.21
2022-12-15T20:46:28.054Z,64.86
2022-12-15T20:48:55.542Z,64.47
2022-12-15T20:51:27.813Z,64.04
2022-12-15T20:53:56.136Z,63.90
2022-12-15T20:56:23.850Z,64.69
2022-12-15T20:58:51.449Z,64.96
2022-12-15T21:01:22.438Z,63.91
2022-12-15T21:03:51.838Z,63.91
2022-12-15T21:06:19.327Z,64.47
2022-12-15T21:08:46.220Z,64.50
2022-12-15T21:11:19.669Z,64.15
2022-12-15T21:13:48.726Z,64.21
2022-12-15T21:16:21.672Z,63.07
2022-12-15T21:21:39.117Z,63.48
2022-12-15T21:24:33.065Z,63.64
2022-12-15T21:27:01.566Z,62.63
2022-12-15T21:29:28.969Z,64.99
2022-12-15T21:31:55.825Z,65.80
2022-12-15T21:34:22.639Z,65.97
2022-12-15T21:36:54.797Z,66.39
2022-12-15T21:39:36.470Z,66.13
2022-12-15T21:42:08.489Z,66.32
2022-12-15T21:44:35.440Z,66.58
2022-12-15T21:47:02.127Z,67.38
2022-12-15T21:49:29.011Z,68.72
2022-12-15T21:51:58.358Z,66.85
2022-12-15T21:54:31.441Z,66.57
2022-12-15T21:57:00.033Z,65.91
2022-12-15T21:59:29.525Z,68.37
2022-12-15T22:01:56.507Z,68.21
2022-12-15T22:04:32.018Z,67.74
2022-12-15T22:06:59.007Z,68.82
2022-12-15T22:09:25.943Z,68.67
2022-12-15T22:11:55.791Z,68.58
2022-12-15T22:14:27.175Z,68.05
2022-12-15T22:16:54.428Z,67.21
2022-12-15T22:19:22.018Z,66.78
2022-12-15T22:21:49.040Z,66.05
2022-12-15T22:24:15.761Z,65.78
2022-12-15T22:26:42.956Z,66.48
2022-12-15T22:29:21.692Z,66.25
2022-12-15T22:31:50.217Z,64.88
2022-12-15T22:34:23.176Z,66.77
2022-12-15T22:36:50.779Z,67.74
2022-12-15T22:39:19.429Z,67.45
2022-12-15T22:41:50.004Z,68.35
2022-12-15T22:44:28.101Z,67.77
2022-12-15T22:46:58.313Z,66.49
2022-12-15T22:49:31.097Z,66.64
2022-12-15T22:51:58.240Z,67.28
2022-12-15T22:54:27.458Z,67.52
2022-12-15T22:57:00.821Z,66.22
2022-12-15T22:59:36.188Z,66.99
2022-12-15T23:02:04.116Z,66.56
2022-12-15T23:04:31.909Z,66.36
2022-12-15T23:07:02.517Z,66.79
2022-12-15T23:09:29.454Z,66.53
2022-12-15T23:11:56.357Z,66.87
2022-12-15T23:14:43.239Z,66.36
2022-12-15T23:17:12.112Z,66.81
2022-12-15T23:19:45.783Z,67.06
2022-12-15T23:22:13.598Z,66.74
2022-12-15T23:24:40.808Z,65.78
2022-12-15T23:27:11.644Z,66.20
2022-12-15T23:29:38.562Z,65.86
2022-12-15T23:32:06.073Z,67.25
2022-12-15T23:34:32.955Z,67.81
2022-12-15T23:36:59.822Z,67.12
2022-12-15T23:39:26.546Z,67.39
2022-12-15T23:41:53.243Z,66.43
2022-12-15T23:44:20.227Z,65.39
2022-12-15T23:46:47.050Z,66.68
2022-12-15T23:49:13.879Z,67.31
2022-12-15T23:51:40.699Z,69.94
2022-12-15T23:54:07.558Z,68.41
2022-12-15T23:56:35.036Z,67.12
2022-12-15T23:59:01.825Z,67.32
